Terminal Aerodrome Forecast
Issued by NWS

Home | Current Version | Previous Version | Text Only | Print | Product List | Glossary On
Versions: 1 2 3 4 5 6 7 8 9 10 11 12 13 14 15 16 17 18
001
FTUS43 KGRB 240302 AAA
TAFMTW
TAF AMD
KMTW 240302Z 2403/2424 36012KT P6SM OVC026
     FM240600 01008KT P6SM BKN021
     FM240700 01008KT P6SM BKN015
     FM241600 03010KT P6SM SCT040 BKN080
     FM242100 04008KT P6SM SCT060=

USA.gov is the U.S. government's official web portal to all federal, state and local government web resources and services.